Messwerte El Tor

Temperatur

Temperatur
°C
1573650000 15.00 15.00 30
1573653600 16.00 16.00 31
1573657200 17.00 17.00 29
1573660800 18.00 18.00 27
1573664400 19.00 19.00 26
1573668000 20.00 20.00 25
1573671600 21.00 21.00 25
1573675200 22.00 22.00 25
1573678800 23.00 23.00 24
1573682400 0.00 0.00 24
1573686000 1.00 1.00 24
1573689600 2.00 2.00 23
1573693200 3.00 3.00
1573696800 4.00 4.00 22
1573700400 5.00 5.00 22
1573704000 6.00 6.00
1573707600 7.00 7.00 22
1573711200 8.00 8.00 24
1573714800 9.00 9.00 27
1573718400 10.00 10.00 27
1573722000 11.00 11.00 27
1573725600 12.00 12.00 28
1573729200 13.00 13.00 30
1573732800 14.00 14.00 30

Aktuellste Messwerte

Wettercharakter
Wetter: recht sonnig
Temperatur
30 °C
Feuchtigkeit
60 %
Wind
20 km/hWindrichtung: Süd
Luftdruck
1010 hPa
Messzeit: 14. November 2019, 14.00Datenquelle: METAR

Weitere Messstationen in der Nähe

Messstation Temperatur Entfernung
Sharm-el-Sheikh 30 °C 80 km
Hurghada 31 °C 120 km
Aqaba 32 °C 199 km
Asyut 33 °C 288 km
Tabuk 25 °C 292 km
Ismalia 32 °C 293 km
Luxor 34 °C 299 km

Wind

Windrichtung Böen Mittelwind
° km/h km/h
1573650000 15.00 14.00 - 15.00 0
1573653600 16.00 15.00 - 16.00 140° 10
1573657200 17.00 16.00 - 17.00 190° 5
1573660800 18.00 17.00 - 18.00 170° 10
1573664400 19.00 18.00 - 19.00 0
1573668000 20.00 19.00 - 20.00 160° 15
1573671600 21.00 20.00 - 21.00 0
1573675200 22.00 21.00 - 22.00 0
1573678800 23.00 22.00 - 23.00 20° 10
1573682400 0.00 23.00 - 0.00 10° 15
1573686000 1.00 0.00 - 1.00 20° 10
1573689600 2.00 1.00 - 2.00 20° 10
1573693200 3.00 2.00 - 3.00
1573696800 4.00 3.00 - 4.00 20° 10
1573700400 5.00 4.00 - 5.00 10° 10
1573704000 6.00 5.00 - 6.00
1573707600 7.00 6.00 - 7.00 30° 5
1573711200 8.00 7.00 - 8.00 0
1573714800 9.00 8.00 - 9.00 0
1573718400 10.00 9.00 - 10.00 270° 15
1573722000 11.00 10.00 - 11.00 290° 10
1573725600 12.00 11.00 - 12.00 260° 10
1573729200 13.00 12.00 - 13.00 130° 10
1573732800 14.00 13.00 - 14.00 180° 20

Ihre Wetterstation

Fehlt Ihre Wetterstation auf unserem Portal?

Schreiben Sie an network@meteonews.ch

Klima

Wann ist es am wärmsten? Wann regnet es am wenigsten? Unsere Klimadaten geben Auskunft.